createdAt,value
2016-12-13T00:00:05.283Z,24.85
2016-12-13T00:05:04.839Z,24.66
2016-12-13T00:10:04.512Z,24.66
2016-12-13T00:15:04.970Z,24.56
2016-12-13T00:20:04.661Z,24.47
2016-12-13T00:25:05.223Z,24.56
2016-12-13T00:30:04.539Z,24.56
2016-12-13T00:35:04.852Z,24.56
2016-12-13T00:40:05.392Z,24.28
2016-12-13T00:45:04.622Z,24.28
2016-12-13T00:50:04.452Z,24.37
2016-12-13T00:55:04.645Z,24.36
2016-12-13T01:00:04.728Z,24.36
2016-12-13T01:05:04.817Z,24.27
2016-12-13T01:10:05.022Z,24.27
2016-12-13T01:15:04.489Z,24.17
2016-12-13T01:20:04.725Z,24.27
2016-12-13T01:25:04.760Z,24.27
2016-12-13T01:30:05.101Z,24.36
2016-12-13T01:35:05.005Z,24.27
2016-12-13T01:40:04.429Z,24.27
2016-12-13T01:45:05.075Z,24.17
2016-12-13T01:50:05.013Z,24.07
2016-12-13T01:55:04.913Z,23.88
2016-12-13T02:00:04.576Z,23.79
2016-12-13T02:05:04.599Z,23.6
2016-12-13T02:10:05.036Z,23.5
2016-12-13T02:15:05.248Z,23.32
2016-12-13T02:20:04.700Z,23.24
2016-12-13T02:25:04.901Z,23.99
2016-12-13T02:30:05.081Z,24.56
2016-12-13T02:35:05.221Z,25.23
2016-12-13T02:40:04.722Z,26.08
2016-12-13T02:45:04.825Z,27.12
2016-12-13T02:50:04.959Z,27.98
2016-12-13T02:55:04.966Z,28.83
2016-12-13T03:00:05.508Z,29.02
2016-12-13T03:05:05.163Z,31.01
2016-12-13T03:10:04.520Z,31.77
2016-12-13T03:15:05.320Z,32.34
2016-12-13T03:20:04.893Z,35.94
2016-12-13T03:25:05.391Z,36.51
2016-12-13T03:30:04.802Z,37.08
2016-12-13T03:35:04.619Z,38.6
2016-12-13T03:40:05.122Z,39.26
2016-12-13T03:45:04.762Z,39.73
2016-12-13T03:50:05.038Z,41.16
2016-12-13T03:55:04.930Z,44.38
2016-12-13T04:00:05.829Z,45.05
2016-12-13T04:05:04.991Z,45.43
2016-12-13T04:10:04.580Z,47.32
2016-12-13T04:15:04.623Z,47.61
2016-12-13T04:20:04.579Z,47.52
2016-12-13T04:25:04.865Z,48.46
2016-12-13T04:30:05.047Z,49.98
2016-12-13T04:35:04.459Z,52.54
2016-12-13T04:40:05.028Z,52.45
2016-12-13T04:45:05.427Z,53.3
2016-12-13T04:50:04.696Z,54.63
2016-12-13T04:55:05.045Z,58.04
2016-12-13T05:00:04.834Z,56.34
2016-12-13T05:05:04.960Z,55.76
2016-12-13T05:10:04.450Z,56.81
2016-12-13T05:15:04.833Z,58.89
2016-12-13T05:20:04.798Z,58.61
2016-12-13T05:25:05.294Z,58.23
2016-12-13T05:30:04.748Z,57.95
2016-12-13T05:35:04.543Z,59.18
2016-12-13T05:40:05.024Z,60.7
2016-12-13T05:45:04.978Z,59.27
2016-12-13T05:50:05.040Z,59.75
2016-12-13T05:55:04.939Z,59.56
2016-12-13T06:00:05.274Z,57.57
2016-12-13T06:05:04.892Z,57.09
2016-12-13T06:10:04.727Z,55.1
2016-12-13T06:15:05.025Z,53.58
2016-12-13T06:20:04.720Z,51.4
2016-12-13T06:25:04.674Z,49.03
2016-12-13T06:30:04.613Z,46.94
2016-12-13T06:35:05.854Z,45.43
2016-12-13T06:40:04.803Z,44.38
2016-12-13T06:45:04.535Z,43.34
2016-12-13T06:50:04.739Z,42.96
2016-12-13T06:55:04.768Z,42.49
2016-12-13T07:00:05.153Z,42.2
2016-12-13T07:05:05.165Z,42.01
2016-12-13T07:10:05.080Z,41.92
2016-12-13T07:15:05.168Z,41.63
2016-12-13T07:20:05.184Z,41.63
2016-12-13T07:25:05.036Z,41.44
2016-12-13T07:30:05.274Z,40.69
2016-12-13T07:35:05.203Z,39.36
2016-12-13T07:40:04.427Z,37.27
2016-12-13T07:45:05.172Z,36.32
2016-12-13T07:50:05.241Z,34.71
2016-12-13T07:55:04.390Z,33.95
2016-12-13T08:00:04.516Z,33.38
2016-12-13T08:05:04.748Z,32.34
2016-12-13T08:10:04.745Z,30.35
2016-12-13T08:15:04.518Z,29.59
2016-12-13T08:20:04.658Z,29.3
2016-12-13T08:25:04.554Z,28.45
2016-12-13T08:30:05.038Z,27.69
2016-12-13T08:35:04.904Z,27.69
2016-12-13T08:40:05.541Z,26.93
2016-12-13T08:45:04.591Z,26.84
2016-12-13T08:50:04.597Z,26.46
2016-12-13T08:55:04.571Z,26.08
2016-12-13T09:00:04.530Z,25.89
2016-12-13T09:05:04.750Z,25.6
2016-12-13T09:10:04.433Z,25.42
2016-12-13T09:15:05.010Z,24.75
2016-12-13T09:20:05.074Z,24.66
2016-12-13T09:25:04.746Z,24.37
2016-12-13T09:30:04.389Z,24.28
2016-12-13T09:35:05.015Z,24.08
2016-12-13T09:40:05.067Z,23.99
2016-12-13T09:45:04.629Z,23.71
2016-12-13T09:50:04.452Z,23.63
2016-12-13T09:55:04.530Z,23.53
2016-12-13T10:00:05.224Z,23.44
2016-12-13T10:05:04.969Z,23.24
2016-12-13T10:10:04.455Z,23.15
2016-12-13T10:15:04.564Z,22.86
2016-12-13T10:20:05.196Z,22.67
2016-12-13T10:25:04.943Z,22.49
2016-12-13T10:30:04.936Z,22.49
2016-12-13T10:35:05.105Z,22.3
2016-12-13T10:40:04.611Z,22.39
2016-12-13T10:45:04.719Z,22.49
2016-12-13T10:50:05.304Z,22.5
2016-12-13T10:55:04.909Z,22.69
2016-12-13T11:00:05.304Z,22.97
2016-12-13T11:05:04.752Z,23.35
2016-12-13T11:10:05.173Z,23.64
2016-12-13T11:15:05.055Z,23.83
2016-12-13T11:20:04.523Z,25.06
2016-12-13T11:25:04.515Z,25.92
2016-12-13T11:30:04.989Z,26.58
2016-12-13T11:35:05.067Z,27.91
2016-12-13T11:40:05.233Z,27.62
2016-12-13T11:45:04.567Z,27.53
2016-12-13T11:50:04.562Z,27.53
2016-12-13T11:55:04.882Z,27.34
2016-12-13T12:00:04.771Z,27.81
2016-12-13T12:05:04.399Z,28
2016-12-13T12:10:05.326Z,27.44
2016-12-13T12:15:05.330Z,27.53
2016-12-13T12:20:05.328Z,27.34
2016-12-13T12:25:04.832Z,27.44
2016-12-13T12:30:04.417Z,27.62
2016-12-13T12:35:04.979Z,28.1
2016-12-13T12:40:04.597Z,28.19
2016-12-13T12:45:04.716Z,28.48
2016-12-13T12:50:04.952Z,28.67
2016-12-13T12:55:05.024Z,28.38
2016-12-13T13:00:04.822Z,28.29
2016-12-13T13:05:04.420Z,29.05
2016-12-13T13:10:04.896Z,28.4
2016-12-13T13:15:05.165Z,29.25
2016-12-13T13:20:04.698Z,29.35
2016-12-13T13:25:04.983Z,29.35
2016-12-13T13:30:05.149Z,29.53
2016-12-13T13:35:05.083Z,29.25
2016-12-13T13:40:04.558Z,29.44
2016-12-13T13:45:05.118Z,29.16
2016-12-13T13:50:04.430Z,29.44
2016-12-13T13:55:04.577Z,29.06
2016-12-13T14:00:04.870Z,28.97
2016-12-13T14:05:05.039Z,28.97
2016-12-13T14:10:04.846Z,28.97
2016-12-13T14:15:04.573Z,29.06
2016-12-13T14:20:04.659Z,28.78
2016-12-13T14:25:04.532Z,28.4
2016-12-13T14:30:05.121Z,28.21
2016-12-13T14:35:05.242Z,28.02
2016-12-13T14:40:04.483Z,27.92
2016-12-13T14:45:05.271Z,27.64
2016-12-13T14:50:04.651Z,27.73
2016-12-13T14:55:05.015Z,27.64
2016-12-13T15:00:04.491Z,27.55
2016-12-13T15:05:04.953Z,27.16
2016-12-13T15:10:05.095Z,27.16
2016-12-13T15:15:04.786Z,26.97
2016-12-13T15:20:04.984Z,26.88
2016-12-13T15:25:04.302Z,26.69
2016-12-13T15:30:05.196Z,26.5
2016-12-13T15:35:04.384Z,26.31
2016-12-13T15:40:04.979Z,26.12
2016-12-13T15:45:04.890Z,25.55
2016-12-13T15:50:05.119Z,25.36
2016-12-13T15:55:04.890Z,25.17
2016-12-13T16:00:04.681Z,24.88
2016-12-13T16:05:04.915Z,24.51
2016-12-13T16:10:04.372Z,24.22
2016-12-13T16:15:04.473Z,24.03
2016-12-13T16:20:04.911Z,24.02
2016-12-13T16:25:04.872Z,23.92
2016-12-13T16:30:04.422Z,23.84
2016-12-13T16:35:05.093Z,23.74
2016-12-13T16:40:04.764Z,23.64
2016-12-13T16:45:04.430Z,23.74
2016-12-13T16:50:04.781Z,23.92
2016-12-13T16:55:04.508Z,24.03
2016-12-13T17:00:05.196Z,24.22
2016-12-13T17:05:04.623Z,24.41
2016-12-13T17:10:04.606Z,24.79
2016-12-13T17:15:04.602Z,24.98
2016-12-13T17:20:04.879Z,25.26
2016-12-13T17:25:04.951Z,25.36
2016-12-13T17:30:05.017Z,25.45
2016-12-13T17:35:05.083Z,25.55
2016-12-13T17:40:05.464Z,25.64
2016-12-13T17:45:05.065Z,25.93
2016-12-13T17:50:05.390Z,26.12
2016-12-13T17:55:04.681Z,26.4
2016-12-13T18:00:04.857Z,26.5
2016-12-13T18:05:04.743Z,26.69
2016-12-13T18:10:04.708Z,26.69
2016-12-13T18:15:04.714Z,26.69
2016-12-13T18:20:04.471Z,26.69
2016-12-13T18:25:05.436Z,26.59
2016-12-13T18:30:04.994Z,26.5
2016-12-13T18:35:05.199Z,26.5
2016-12-13T18:40:04.978Z,26.31
2016-12-13T18:45:04.767Z,26.21
2016-12-13T18:50:05.170Z,26.12
2016-12-13T18:55:05.188Z,25.84
2016-12-13T19:00:05.352Z,25.36
2016-12-13T19:05:04.998Z,25.17
2016-12-13T19:10:05.353Z,24.98
2016-12-13T19:15:05.302Z,24.87
2016-12-13T19:20:04.583Z,24.68
2016-12-13T19:25:04.662Z,24.49
2016-12-13T19:30:04.940Z,24.21
2016-12-13T19:35:05.192Z,23.73
2016-12-13T19:40:05.486Z,23.35
2016-12-13T19:45:04.705Z,22.78
2016-12-13T19:50:04.730Z,22.4
2016-12-13T19:55:05.259Z,22.31
2016-12-13T20:00:04.996Z,22.12
2016-12-13T20:05:05.395Z,22.02
2016-12-13T20:10:05.585Z,21.93
2016-12-13T20:15:04.519Z,21.83
2016-12-13T20:20:05.294Z,21.74
2016-12-13T20:25:05.331Z,21.74
2016-12-13T20:30:05.488Z,21.64
2016-12-13T20:35:04.617Z,21.64
2016-12-13T20:40:05.172Z,21.64
2016-12-13T20:45:05.448Z,21.74
2016-12-13T20:50:05.144Z,21.83
2016-12-13T20:55:05.047Z,22.02
2016-12-13T21:00:04.864Z,22.12
2016-12-13T21:05:04.832Z,22.02
2016-12-13T21:10:04.543Z,22.12
2016-12-13T21:15:04.550Z,22.12
2016-12-13T21:20:05.133Z,22.02
2016-12-13T21:25:04.452Z,22.02
2016-12-13T21:30:05.102Z,22.02
2016-12-13T21:35:05.261Z,22.02
2016-12-13T21:40:05.348Z,22.12
2016-12-13T21:45:05.184Z,22.12
2016-12-13T21:50:04.987Z,22.02
2016-12-13T21:55:05.225Z,22.02
2016-12-13T22:00:04.788Z,22.03
2016-12-13T22:05:04.570Z,22.12
2016-12-13T22:10:04.991Z,22.13
2016-12-13T22:15:04.969Z,22.32
2016-12-13T22:20:04.884Z,22.32
2016-12-13T22:25:05.347Z,22.32
2016-12-13T22:30:05.242Z,22.22
2016-12-13T22:35:04.379Z,22.22
2016-12-13T22:40:04.777Z,22.22
2016-12-13T22:45:04.901Z,22.22
2016-12-13T22:50:04.904Z,22.22
2016-12-13T22:55:04.852Z,22.13
2016-12-13T23:00:04.625Z,22.22
2016-12-13T23:05:04.965Z,22.13
2016-12-13T23:10:05.253Z,22.13
2016-12-13T23:15:04.415Z,22.03
2016-12-13T23:20:05.477Z,22.03
2016-12-13T23:25:05.103Z,21.94
2016-12-13T23:30:05.051Z,21.84
2016-12-13T23:35:05.249Z,21.84
2016-12-13T23:40:04.821Z,21.75
2016-12-13T23:45:04.874Z,21.75
2016-12-13T23:50:04.485Z,21.66
2016-12-13T23:55:05.389Z,21.66
